createdAt,value
2017-12-05T00:01:58.397Z,5.21
2017-12-05T00:04:25.893Z,5.26
2017-12-05T00:06:53.372Z,5.41
2017-12-05T00:09:21.790Z,5.35
2017-12-05T00:11:49.267Z,5.42
2017-12-05T00:14:16.833Z,5.36
2017-12-05T00:16:44.353Z,5.28
2017-12-05T00:19:11.841Z,5.53
2017-12-05T00:21:39.418Z,5.38
2017-12-05T00:24:06.868Z,5.32
2017-12-05T00:26:34.338Z,5.31
2017-12-05T00:31:35.741Z,5.31
2017-12-05T00:34:03.240Z,5.28
2017-12-05T00:36:30.740Z,5.32
2017-12-05T00:38:58.269Z,5.40
2017-12-05T00:41:25.777Z,5.38
2017-12-05T00:43:53.261Z,5.40
2017-12-05T00:46:20.766Z,5.32
2017-12-05T00:48:48.269Z,5.31
2017-12-05T00:51:15.733Z,5.34
2017-12-05T00:53:43.212Z,5.35
2017-12-05T00:56:10.668Z,5.34
2017-12-05T00:58:38.149Z,5.29
2017-12-05T01:01:05.642Z,5.29
2017-12-05T01:03:33.149Z,5.29
2017-12-05T01:06:00.615Z,5.30
2017-12-05T01:08:28.077Z,5.30
2017-12-05T01:10:55.571Z,5.35
2017-12-05T01:13:23.037Z,5.33
2017-12-05T01:15:50.521Z,5.28
2017-12-05T01:18:17.985Z,5.30
2017-12-05T01:20:45.475Z,5.30
2017-12-05T01:23:12.993Z,5.28
2017-12-05T01:25:40.822Z,5.32
2017-12-05T01:28:08.313Z,5.34
2017-12-05T01:30:35.787Z,5.35
2017-12-05T01:33:03.248Z,5.33
2017-12-05T01:35:30.779Z,5.31
2017-12-05T01:37:58.248Z,5.32
2017-12-05T01:40:25.742Z,5.32
2017-12-05T01:42:53.498Z,5.30
2017-12-05T01:45:20.988Z,5.30
2017-12-05T01:47:48.444Z,5.33
2017-12-05T01:50:15.890Z,5.29
2017-12-05T01:52:43.363Z,5.34
2017-12-05T01:55:10.802Z,5.32
2017-12-05T01:57:38.266Z,5.34
2017-12-05T02:00:05.715Z,5.32
2017-12-05T02:02:33.187Z,5.32
2017-12-05T02:05:00.642Z,5.31
2017-12-05T02:07:28.105Z,5.27
2017-12-05T02:09:55.550Z,5.25
2017-12-05T02:12:23.009Z,5.30
2017-12-05T02:14:50.464Z,5.35
2017-12-05T02:17:18.022Z,5.35
2017-12-05T02:19:45.472Z,5.31
2017-12-05T02:22:12.959Z,5.38
2017-12-05T02:24:40.417Z,5.46
2017-12-05T02:27:07.891Z,5.38
2017-12-05T02:29:35.428Z,5.31
2017-12-05T02:32:02.947Z,5.34
2017-12-05T02:34:30.394Z,5.32
2017-12-05T02:36:57.883Z,5.24
2017-12-05T02:41:59.226Z,5.28
2017-12-05T02:44:26.675Z,5.30
2017-12-05T02:46:54.127Z,5.36
2017-12-05T02:49:21.592Z,5.30
2017-12-05T02:51:49.049Z,5.34
2017-12-05T02:54:16.519Z,5.27
2017-12-05T02:56:43.992Z,5.22
2017-12-05T02:59:11.449Z,5.29
2017-12-05T03:01:38.895Z,5.38
2017-12-05T03:04:06.363Z,5.41
2017-12-05T03:06:33.831Z,5.33
2017-12-05T03:09:01.307Z,5.45
2017-12-05T03:11:28.757Z,5.33
2017-12-05T03:13:56.247Z,5.21
2017-12-05T03:16:23.713Z,5.25
2017-12-05T03:18:51.199Z,5.30
2017-12-05T03:21:18.639Z,5.27
2017-12-05T03:23:46.083Z,5.42
2017-12-05T03:26:13.550Z,5.49
2017-12-05T03:28:40.997Z,5.34
2017-12-05T03:31:08.462Z,5.39
2017-12-05T03:33:35.923Z,5.34
2017-12-05T03:36:03.390Z,5.43
2017-12-05T03:38:30.846Z,5.48
2017-12-05T03:40:58.324Z,5.47
2017-12-05T03:43:25.765Z,5.57
2017-12-05T03:45:53.240Z,5.46
2017-12-05T03:48:20.693Z,5.30
2017-12-05T03:50:48.162Z,5.46
2017-12-05T03:53:15.615Z,5.55
2017-12-05T03:55:43.127Z,5.59
2017-12-05T03:58:10.563Z,5.56
2017-12-05T04:00:38.007Z,5.43
2017-12-05T04:03:05.489Z,5.45
2017-12-05T04:05:32.947Z,5.25
2017-12-05T04:08:00.414Z,5.25
2017-12-05T04:10:27.862Z,5.62
2017-12-05T04:12:55.355Z,5.36
2017-12-05T04:15:22.798Z,5.41
2017-12-05T04:17:50.265Z,5.30
2017-12-05T04:20:17.710Z,5.27
2017-12-05T04:22:45.186Z,5.22
2017-12-05T04:25:12.617Z,5.23
2017-12-05T04:27:40.058Z,5.16
2017-12-05T04:30:07.536Z,5.13
2017-12-05T04:32:34.987Z,5.08
2017-12-05T04:35:02.480Z,4.99
2017-12-05T04:37:29.935Z,4.96
2017-12-05T04:39:57.416Z,4.92
2017-12-05T04:42:24.872Z,4.89
2017-12-05T04:44:52.348Z,4.87
2017-12-05T04:47:19.794Z,4.87
2017-12-05T04:49:47.254Z,4.85
2017-12-05T04:52:14.689Z,4.82
2017-12-05T04:54:42.163Z,4.86
2017-12-05T04:57:09.654Z,4.80
2017-12-05T04:59:37.110Z,4.77
2017-12-05T05:02:04.575Z,4.68
2017-12-05T05:04:32.025Z,4.66
2017-12-05T05:06:59.482Z,4.60
2017-12-05T05:09:26.939Z,4.60
2017-12-05T05:11:54.412Z,4.55
2017-12-05T05:14:21.849Z,4.52
2017-12-05T05:16:49.313Z,4.47
2017-12-05T05:19:16.774Z,4.50
2017-12-05T05:21:44.239Z,4.43
2017-12-05T05:24:11.677Z,4.40
2017-12-05T05:26:39.141Z,4.36
2017-12-05T05:29:06.598Z,4.27
2017-12-05T05:31:34.071Z,4.22
2017-12-05T05:34:01.523Z,4.24
2017-12-05T05:36:29.001Z,4.26
2017-12-05T05:38:56.472Z,4.28
2017-12-05T05:41:23.921Z,4.34
2017-12-05T05:43:51.395Z,4.36
2017-12-05T05:46:18.844Z,4.34
2017-12-05T05:48:46.310Z,4.35
2017-12-05T05:51:13.754Z,4.30
2017-12-05T05:53:41.229Z,4.27
2017-12-05T05:56:08.673Z,4.27
2017-12-05T05:58:36.134Z,4.23
2017-12-05T06:01:03.587Z,4.26
2017-12-05T06:03:31.108Z,4.22
2017-12-05T06:05:58.719Z,4.28
2017-12-05T06:08:26.223Z,4.29
2017-12-05T06:10:53.705Z,4.39
2017-12-05T06:13:21.151Z,4.41
2017-12-05T06:15:48.632Z,4.43
2017-12-05T06:18:16.083Z,4.48
2017-12-05T06:20:43.559Z,4.44
2017-12-05T06:23:11.067Z,4.44
2017-12-05T06:25:38.543Z,4.45
2017-12-05T06:28:06.011Z,4.48
2017-12-05T06:30:33.493Z,4.46
2017-12-05T06:33:01.079Z,4.47
2017-12-05T06:35:28.656Z,4.51
2017-12-05T06:37:56.119Z,4.49
2017-12-05T06:40:23.599Z,4.48
2017-12-05T06:42:51.047Z,4.53
2017-12-05T06:45:18.544Z,4.60
2017-12-05T06:47:46.000Z,4.65
2017-12-05T06:50:13.495Z,4.73
2017-12-05T06:52:40.929Z,4.76
2017-12-05T06:55:08.390Z,4.81
2017-12-05T06:57:35.853Z,4.80
2017-12-05T07:00:03.295Z,4.85
2017-12-05T07:02:30.763Z,4.80
2017-12-05T07:04:58.211Z,4.85
2017-12-05T07:07:25.683Z,4.85
2017-12-05T07:09:53.139Z,4.85
2017-12-05T07:12:20.636Z,4.88
2017-12-05T07:14:48.086Z,4.88
2017-12-05T07:17:16.117Z,4.95
2017-12-05T07:19:43.566Z,4.95
2017-12-05T07:22:11.039Z,4.91
2017-12-05T07:24:38.490Z,4.97
2017-12-05T07:27:06.011Z,5.00
2017-12-05T07:29:33.481Z,4.94
2017-12-05T07:32:00.930Z,5.00
2017-12-05T07:34:28.404Z,5.06
2017-12-05T07:36:55.846Z,4.96
2017-12-05T07:39:23.314Z,4.99
2017-12-05T07:41:50.749Z,5.04
2017-12-05T07:44:18.231Z,4.99
2017-12-05T07:46:45.665Z,4.95
2017-12-05T07:49:13.132Z,5.03
2017-12-05T07:51:40.620Z,4.99
2017-12-05T07:54:08.084Z,5.03
2017-12-05T07:56:35.529Z,5.05
2017-12-05T07:59:02.981Z,5.03
2017-12-05T08:01:30.409Z,5.04
2017-12-05T08:03:57.856Z,5.02
2017-12-05T08:06:25.323Z,5.01
2017-12-05T08:08:52.765Z,5.03
2017-12-05T08:11:20.251Z,4.88
2017-12-05T08:13:47.694Z,4.79
2017-12-05T08:16:15.172Z,4.88
2017-12-05T08:18:42.619Z,4.96
2017-12-05T08:21:10.093Z,5.08
2017-12-05T08:23:37.526Z,5.33
2017-12-05T08:26:04.999Z,5.23
2017-12-05T08:28:32.438Z,5.33
2017-12-05T08:30:59.914Z,5.37
2017-12-05T08:33:27.457Z,5.32
2017-12-05T08:35:54.920Z,5.42
2017-12-05T08:38:22.406Z,5.47
2017-12-05T08:40:49.879Z,5.54
2017-12-05T08:43:17.356Z,5.73
2017-12-05T08:45:44.884Z,5.78
2017-12-05T08:48:12.360Z,5.83
2017-12-05T08:50:39.804Z,5.74
2017-12-05T08:53:07.271Z,5.88
2017-12-05T08:55:34.715Z,6.02
2017-12-05T08:58:02.174Z,6.20
2017-12-05T09:00:29.606Z,6.38
2017-12-05T09:02:57.298Z,6.52
2017-12-05T09:05:24.768Z,6.26
2017-12-05T09:07:52.253Z,6.23
2017-12-05T09:10:19.688Z,6.37
2017-12-05T09:12:47.163Z,6.42
2017-12-05T09:15:14.605Z,6.47
2017-12-05T09:17:42.109Z,6.54
2017-12-05T09:20:09.550Z,6.67
2017-12-05T09:22:37.143Z,6.53
2017-12-05T09:25:04.603Z,6.67
2017-12-05T09:27:32.055Z,6.76
2017-12-05T09:29:59.654Z,6.81
2017-12-05T09:32:27.109Z,6.95
2017-12-05T09:34:54.591Z,6.68
2017-12-05T09:37:22.027Z,6.69
2017-12-05T09:39:49.545Z,6.73
2017-12-05T09:42:17.000Z,6.98
2017-12-05T09:44:44.536Z,7.29
2017-12-05T09:47:11.973Z,7.14
2017-12-05T09:49:39.426Z,7.21
2017-12-05T09:52:06.875Z,7.08
2017-12-05T09:54:34.362Z,7.11
2017-12-05T09:57:01.806Z,6.93
2017-12-05T09:59:29.258Z,7.13
2017-12-05T10:01:56.704Z,6.88
2017-12-05T10:04:24.145Z,7.04
2017-12-05T10:06:51.673Z,6.96
2017-12-05T10:09:19.154Z,6.92
2017-12-05T10:11:46.668Z,7.12
2017-12-05T10:14:14.123Z,7.11
2017-12-05T10:16:41.619Z,6.99
2017-12-05T10:19:09.135Z,7.15
2017-12-05T10:21:36.612Z,6.96
2017-12-05T10:24:04.042Z,7.01
2017-12-05T10:26:31.494Z,6.99
2017-12-05T10:28:58.931Z,7.24
2017-12-05T10:31:26.587Z,7.34
2017-12-05T10:33:54.017Z,7.25
2017-12-05T10:36:21.488Z,7.19
2017-12-05T10:38:48.994Z,7.36
2017-12-05T10:41:16.473Z,7.16
2017-12-05T10:43:43.908Z,7.11
2017-12-05T10:46:11.361Z,7.17
2017-12-05T10:48:38.832Z,7.08
2017-12-05T10:51:06.279Z,7.07
2017-12-05T10:53:33.836Z,7.21
2017-12-05T10:56:02.128Z,7.39
2017-12-05T10:58:29.599Z,7.38
2017-12-05T11:00:57.039Z,7.53
2017-12-05T11:03:24.776Z,7.46
2017-12-05T11:05:52.263Z,7.42
2017-12-05T11:08:19.737Z,7.24
2017-12-05T11:10:47.188Z,7.37
2017-12-05T11:13:14.649Z,7.39
2017-12-05T11:15:42.089Z,7.30
2017-12-05T11:18:09.554Z,7.50
2017-12-05T11:20:36.983Z,7.43
2017-12-05T11:23:04.448Z,7.40
2017-12-05T11:25:31.883Z,7.40
2017-12-05T11:27:59.355Z,7.54
2017-12-05T11:30:26.792Z,7.47
2017-12-05T11:32:54.266Z,7.31
2017-12-05T11:35:21.734Z,7.38
2017-12-05T11:37:49.174Z,7.26
2017-12-05T11:40:16.777Z,7.21
2017-12-05T11:42:44.209Z,7.25
2017-12-05T11:45:11.675Z,7.26
2017-12-05T11:47:39.135Z,7.40
2017-12-05T11:50:06.758Z,7.25
2017-12-05T11:52:34.215Z,7.22
2017-12-05T11:55:01.673Z,7.26
2017-12-05T11:57:29.145Z,7.28
2017-12-05T11:59:56.611Z,7.38
2017-12-05T12:02:24.051Z,7.52
2017-12-05T12:04:51.519Z,7.49
2017-12-05T12:07:18.971Z,7.42
2017-12-05T12:09:46.424Z,7.47
2017-12-05T12:12:13.896Z,7.57
2017-12-05T12:14:41.344Z,7.58
2017-12-05T12:17:08.811Z,7.67
2017-12-05T12:19:36.259Z,7.67
2017-12-05T12:22:03.722Z,7.49
2017-12-05T12:24:31.257Z,7.67
2017-12-05T12:26:58.713Z,7.74
2017-12-05T12:29:26.163Z,7.58
2017-12-05T12:31:53.695Z,7.71
2017-12-05T12:34:21.165Z,7.60
2017-12-05T12:36:48.684Z,7.57
2017-12-05T12:39:16.139Z,7.64
2017-12-05T12:41:43.612Z,7.61
2017-12-05T12:44:11.067Z,7.62
2017-12-05T12:46:38.526Z,7.63
2017-12-05T12:49:06.002Z,7.49
2017-12-05T12:51:33.447Z,7.51
2017-12-05T12:54:00.929Z,7.54
2017-12-05T12:56:28.376Z,7.46
2017-12-05T12:58:55.833Z,7.44
2017-12-05T13:01:23.306Z,7.45
2017-12-05T13:03:50.763Z,7.34
2017-12-05T13:06:18.202Z,7.32
2017-12-05T13:08:45.687Z,7.30
2017-12-05T13:11:13.114Z,7.26
2017-12-05T13:13:40.569Z,7.28
2017-12-05T13:16:08.006Z,7.32
2017-12-05T13:18:35.471Z,7.27
2017-12-05T13:21:02.902Z,7.13
2017-12-05T13:23:30.374Z,7.16
2017-12-05T13:25:57.819Z,7.16
2017-12-05T13:28:25.288Z,7.15
2017-12-05T13:30:52.743Z,7.06
2017-12-05T13:33:20.198Z,7.11
2017-12-05T13:35:48.507Z,7.20
2017-12-05T13:38:15.941Z,7.10
2017-12-05T13:40:43.413Z,7.25
2017-12-05T13:43:10.867Z,7.12
2017-12-05T13:45:38.352Z,7.10
2017-12-05T13:48:05.801Z,6.98
2017-12-05T13:50:33.370Z,6.96
2017-12-05T13:53:00.830Z,6.97
2017-12-05T13:55:28.285Z,6.90
2017-12-05T13:57:55.736Z,7.03
2017-12-05T14:00:23.204Z,7.15
2017-12-05T14:02:50.656Z,7.10
2017-12-05T14:05:18.127Z,7.07
2017-12-05T14:07:45.572Z,7.17
2017-12-05T14:10:13.030Z,6.97
2017-12-05T14:12:40.479Z,6.90
2017-12-05T14:15:07.938Z,7.21
2017-12-05T14:17:35.619Z,7.08
2017-12-05T14:20:03.078Z,6.95
2017-12-05T14:22:30.556Z,6.87
2017-12-05T14:24:58.001Z,6.87
2017-12-05T14:27:25.487Z,6.76
2017-12-05T14:29:52.937Z,6.82
2017-12-05T14:32:20.436Z,6.65
2017-12-05T14:34:47.892Z,6.82
2017-12-05T14:37:15.371Z,6.83
2017-12-05T14:39:42.818Z,6.79
2017-12-05T14:42:10.285Z,6.64
2017-12-05T14:44:37.744Z,6.81
2017-12-05T14:47:05.426Z,6.73
2017-12-05T14:49:32.903Z,6.66
2017-12-05T14:52:00.380Z,6.92
2017-12-05T14:54:27.850Z,7.08
2017-12-05T14:56:55.320Z,7.12
2017-12-05T14:59:22.772Z,6.91
2017-12-05T15:01:50.224Z,6.80
2017-12-05T15:04:17.689Z,6.79
2017-12-05T15:06:45.180Z,6.69
2017-12-05T15:09:12.649Z,6.81
2017-12-05T15:11:40.093Z,6.66
2017-12-05T15:14:07.565Z,6.61
2017-12-05T15:16:35.015Z,6.76
2017-12-05T15:19:02.502Z,6.72
2017-12-05T15:21:29.957Z,6.80
2017-12-05T15:23:57.530Z,6.85
2017-12-05T15:26:24.973Z,6.89
2017-12-05T15:28:52.433Z,6.85
2017-12-05T15:31:19.884Z,6.73
2017-12-05T15:33:47.362Z,6.69
2017-12-05T15:36:14.822Z,6.85
2017-12-05T15:38:42.299Z,6.82
2017-12-05T15:41:09.741Z,6.74
2017-12-05T15:43:37.215Z,6.79
2017-12-05T15:46:04.657Z,6.84
2017-12-05T15:48:32.102Z,6.90
2017-12-05T15:50:59.587Z,6.74
2017-12-05T15:53:27.029Z,6.80
2017-12-05T15:55:54.510Z,6.83
2017-12-05T15:58:21.955Z,6.67
2017-12-05T16:00:49.439Z,6.74
2017-12-05T16:03:17.296Z,6.70
2017-12-05T16:05:44.935Z,6.53
2017-12-05T16:08:12.378Z,6.75
2017-12-05T16:10:39.852Z,6.73
2017-12-05T16:13:07.300Z,6.64
2017-12-05T16:15:34.781Z,6.62
2017-12-05T16:18:02.233Z,6.62
2017-12-05T16:20:29.678Z,6.59
2017-12-05T16:22:57.150Z,6.67
2017-12-05T16:25:24.600Z,6.56
2017-12-05T16:27:52.081Z,6.80
2017-12-05T16:30:19.520Z,6.66
2017-12-05T16:32:46.996Z,6.54
2017-12-05T16:35:14.442Z,6.58
2017-12-05T16:37:41.954Z,6.67
2017-12-05T16:40:09.411Z,6.74
2017-12-05T16:42:36.890Z,6.95
2017-12-05T16:45:04.341Z,6.53
2017-12-05T16:47:31.823Z,6.53
2017-12-05T16:49:59.273Z,6.40
2017-12-05T16:52:26.748Z,6.51
2017-12-05T16:54:54.189Z,6.45
2017-12-05T16:57:21.691Z,6.42
2017-12-05T16:59:49.133Z,6.45
2017-12-05T17:02:16.581Z,6.61
2017-12-05T17:04:44.064Z,6.63
2017-12-05T17:07:11.515Z,6.70
2017-12-05T17:09:38.986Z,6.50
2017-12-05T17:12:06.442Z,6.46
2017-12-05T17:14:33.913Z,6.51
2017-12-05T17:17:01.364Z,6.61
2017-12-05T17:19:28.842Z,6.54
2017-12-05T17:21:56.282Z,6.59
2017-12-05T17:24:23.754Z,6.68
2017-12-05T17:26:51.193Z,6.53
2017-12-05T17:29:18.661Z,6.50
2017-12-05T17:31:46.101Z,6.47
2017-12-05T17:34:13.570Z,6.72
2017-12-05T17:36:41.019Z,6.59
2017-12-05T17:39:08.481Z,6.54
2017-12-05T17:41:35.917Z,6.58
2017-12-05T17:44:03.381Z,6.44
2017-12-05T17:46:30.835Z,6.53
2017-12-05T17:48:58.311Z,6.47
2017-12-05T17:51:25.758Z,6.33
2017-12-05T17:53:53.247Z,6.46
2017-12-05T17:56:20.711Z,6.42
2017-12-05T17:58:48.169Z,6.42
2017-12-05T18:01:15.648Z,6.37
2017-12-05T18:03:43.089Z,6.36
2017-12-05T18:06:10.567Z,6.38
2017-12-05T18:08:38.038Z,6.37
2017-12-05T18:11:05.510Z,6.48
2017-12-05T18:13:32.949Z,6.31
2017-12-05T18:16:00.421Z,6.23
2017-12-05T18:18:27.862Z,6.34
2017-12-05T18:20:55.334Z,6.27
2017-12-05T18:23:22.793Z,6.37
2017-12-05T18:25:50.331Z,6.22
2017-12-05T18:28:17.769Z,6.51
2017-12-05T18:30:45.274Z,6.42
2017-12-05T18:33:12.733Z,6.51
2017-12-05T18:35:40.750Z,6.44
2017-12-05T18:38:08.209Z,6.35
2017-12-05T18:40:35.653Z,6.32
2017-12-05T18:43:03.118Z,6.39
2017-12-05T18:45:30.606Z,6.30
2017-12-05T18:47:58.082Z,6.30
2017-12-05T18:50:25.547Z,6.33
2017-12-05T18:52:53.027Z,6.23
2017-12-05T18:55:20.527Z,6.40
2017-12-05T18:57:47.994Z,6.29
2017-12-05T19:00:15.449Z,6.36
2017-12-05T19:02:42.906Z,6.28
2017-12-05T19:05:10.356Z,6.22
2017-12-05T19:07:38.116Z,6.28
2017-12-05T19:10:05.594Z,6.31
2017-12-05T19:12:33.051Z,6.41
2017-12-05T19:15:00.530Z,6.38
2017-12-05T19:17:28.051Z,6.29
2017-12-05T19:19:55.514Z,6.35
2017-12-05T19:22:22.979Z,6.35
2017-12-05T19:24:50.507Z,6.35
2017-12-05T19:27:17.950Z,6.46
2017-12-05T19:29:45.411Z,6.19
2017-12-05T19:32:12.860Z,6.20
2017-12-05T19:34:40.385Z,6.25
2017-12-05T19:37:07.893Z,6.19
2017-12-05T19:39:35.361Z,6.22
2017-12-05T19:42:02.801Z,6.17
2017-12-05T19:44:30.265Z,6.19
2017-12-05T19:46:57.705Z,6.12
2017-12-05T19:49:25.175Z,6.23
2017-12-05T19:51:52.624Z,6.24
2017-12-05T19:54:20.093Z,6.22
2017-12-05T19:56:47.547Z,6.27
2017-12-05T19:59:15.020Z,6.22
2017-12-05T20:01:42.475Z,6.23
2017-12-05T20:04:09.946Z,6.36
2017-12-05T20:06:37.413Z,6.40
2017-12-05T20:09:04.850Z,6.31
2017-12-05T20:11:32.313Z,6.35
2017-12-05T20:13:59.767Z,6.20
2017-12-05T20:16:27.244Z,6.24
2017-12-05T20:18:54.795Z,6.17
2017-12-05T20:21:22.277Z,6.21
2017-12-05T20:23:49.741Z,6.25
2017-12-05T20:26:17.222Z,6.33
2017-12-05T20:31:18.402Z,6.36
2017-12-05T20:33:45.851Z,6.30
2017-12-05T20:36:13.327Z,6.22
2017-12-05T20:38:40.781Z,6.19
2017-12-05T20:41:08.249Z,6.25
2017-12-05T20:43:35.697Z,6.21
2017-12-05T20:46:03.240Z,6.21
2017-12-05T20:48:30.706Z,6.55
2017-12-05T20:50:58.180Z,6.34
2017-12-05T20:53:25.635Z,6.07
2017-12-05T20:55:53.134Z,6.12
2017-12-05T20:58:20.578Z,6.19
2017-12-05T21:00:48.052Z,6.31
2017-12-05T21:03:15.549Z,6.29
2017-12-05T21:05:43.007Z,6.32
2017-12-05T21:08:10.470Z,6.18
2017-12-05T21:10:37.926Z,6.33
2017-12-05T21:13:05.431Z,6.33
2017-12-05T21:15:32.874Z,6.25
2017-12-05T21:18:00.341Z,6.38
2017-12-05T21:20:27.779Z,6.22
2017-12-05T21:22:55.246Z,6.31
2017-12-05T21:25:22.688Z,6.13
2017-12-05T21:27:50.149Z,6.11
2017-12-05T21:30:17.600Z,6.19
2017-12-05T21:32:45.079Z,6.19
2017-12-05T21:35:12.527Z,6.23
2017-12-05T21:37:40.009Z,6.17
2017-12-05T21:40:07.450Z,6.25
2017-12-05T21:42:34.894Z,6.35
2017-12-05T21:45:02.400Z,6.28
2017-12-05T21:47:30.214Z,6.21
2017-12-05T21:49:57.718Z,6.14
2017-12-05T21:52:25.170Z,6.27
2017-12-05T21:54:52.658Z,6.22
2017-12-05T21:57:20.108Z,6.17
2017-12-05T21:59:47.646Z,6.20
2017-12-05T22:02:15.095Z,6.18
2017-12-05T22:04:42.562Z,6.16
2017-12-05T22:07:10.022Z,6.28
2017-12-05T22:09:37.499Z,6.24
2017-12-05T22:12:04.938Z,6.21
2017-12-05T22:14:32.401Z,6.16
2017-12-05T22:16:59.857Z,6.31
2017-12-05T22:19:27.333Z,6.20
2017-12-05T22:21:54.769Z,6.23
2017-12-05T22:24:22.218Z,6.23
2017-12-05T22:26:49.681Z,6.19
2017-12-05T22:29:17.128Z,6.10
2017-12-05T22:31:44.609Z,6.13
2017-12-05T22:34:12.050Z,6.30
2017-12-05T22:36:39.595Z,6.28
2017-12-05T22:39:07.059Z,6.16
2017-12-05T22:41:34.549Z,6.28
2017-12-05T22:44:02.002Z,6.38
2017-12-05T22:46:29.473Z,6.44
2017-12-05T22:48:56.935Z,6.35
2017-12-05T22:51:24.397Z,6.31
2017-12-05T22:53:51.853Z,6.14
2017-12-05T22:56:19.318Z,6.18
2017-12-05T22:58:46.805Z,6.21
2017-12-05T23:01:14.285Z,6.16
2017-12-05T23:03:41.765Z,6.14
2017-12-05T23:06:09.215Z,6.12
2017-12-05T23:08:36.721Z,6.12
2017-12-05T23:11:04.172Z,6.07
2017-12-05T23:13:31.648Z,6.15
2017-12-05T23:15:59.099Z,6.11
2017-12-05T23:18:26.649Z,6.14
2017-12-05T23:20:54.123Z,6.11
2017-12-05T23:23:21.631Z,6.01
2017-12-05T23:25:49.084Z,6.11
2017-12-05T23:28:16.559Z,6.14
2017-12-05T23:30:44.010Z,6.19
2017-12-05T23:33:11.479Z,6.13
2017-12-05T23:35:38.918Z,6.12
2017-12-05T23:38:06.391Z,6.12
2017-12-05T23:40:33.829Z,6.14
2017-12-05T23:43:01.314Z,6.11
2017-12-05T23:45:28.767Z,6.12
2017-12-05T23:47:56.234Z,6.04
2017-12-05T23:50:23.739Z,6.04
2017-12-05T23:52:51.228Z,5.95
2017-12-05T23:55:18.693Z,5.95
2017-12-05T23:57:46.155Z,5.95
